createdAt,value
2019-01-05T00:00:14.423Z,37.1
2019-01-05T00:01:03.206Z,36.9
2019-01-05T00:01:53.824Z,36.7
2019-01-05T00:02:44.713Z,36.3
2019-01-05T00:03:34.206Z,35.9
2019-01-05T00:04:24.186Z,36.6
2019-01-05T00:05:14.329Z,36.9
2019-01-05T00:06:04.583Z,37.1
2019-01-05T00:06:54.908Z,37.2
2019-01-05T00:07:45.001Z,37.2
2019-01-05T00:08:34.753Z,36.9
2019-01-05T00:09:24.549Z,36.6
2019-01-05T00:10:14.816Z,36.2
2019-01-05T00:11:04.425Z,36.5
2019-01-05T00:11:55.553Z,37
2019-01-05T00:12:44.773Z,37.3
2019-01-05T00:13:35.420Z,37.3
2019-01-05T00:14:24.400Z,37.4
2019-01-05T00:15:16.893Z,37.4
2019-01-05T00:33:28.954Z,36.7
2019-01-05T00:34:19.281Z,36.8
2019-01-05T00:35:08.172Z,37.2
2019-01-05T00:35:57.716Z,37.4
2019-01-05T00:36:47.785Z,37.6
2019-01-05T00:37:38.993Z,37.6
2019-01-05T00:38:29.026Z,37.6
2019-01-05T00:39:18.304Z,37.3
2019-01-05T00:40:09.194Z,37
2019-01-05T00:40:58.921Z,36.6
2019-01-05T00:41:47.867Z,36.9
2019-01-05T00:42:39.345Z,37.3
2019-01-05T00:43:28.851Z,37.6
2019-01-05T00:44:18.324Z,37.6
2019-01-05T00:45:09.483Z,37.7
2019-01-05T00:45:59.785Z,37.6
2019-01-05T00:46:49.045Z,37.4
2019-01-05T00:47:39.393Z,37.1
2019-01-05T00:48:30.008Z,36.8
2019-01-05T00:49:18.928Z,36.8
2019-01-05T00:50:09.014Z,37.3
2019-01-05T00:50:59.688Z,37.5
2019-01-05T00:51:50.251Z,37.7
2019-01-05T00:52:39.191Z,37.8
2019-01-05T00:53:29.233Z,37.8
2019-01-05T00:54:20.381Z,37.6
2019-01-05T00:55:10.250Z,37.3
2019-01-05T00:56:00.545Z,36.9
2019-01-05T00:56:50.310Z,37.2
2019-01-05T00:57:40.603Z,37.6
2019-01-05T00:58:29.817Z,37.8
2019-01-05T00:59:20.800Z,37.9
2019-01-05T01:00:10.523Z,38
2019-01-05T01:01:00.325Z,38
2019-01-05T01:01:50.636Z,38
2019-01-05T01:02:41.285Z,37.9
2019-01-05T01:03:28.822Z,37.6
2019-01-05T01:04:20.750Z,37.3
2019-01-05T01:05:09.765Z,37
2019-01-05T01:06:00.908Z,36.7
2019-01-05T01:06:50.980Z,37.2
2019-01-05T01:07:40.429Z,37.6
2019-01-05T01:08:30.852Z,37.8
2019-01-05T01:09:36.506Z,38
2019-01-05T01:10:11.517Z,38.1
2019-01-05T01:11:01.502Z,38.1
2019-01-05T01:11:51.239Z,38.1
2019-01-05T01:12:40.239Z,38
2019-01-05T01:13:31.153Z,37.8
2019-01-05T01:14:21.500Z,37.5
2019-01-05T01:15:10.997Z,37.2
2019-01-05T01:16:01.931Z,36.9
2019-01-05T01:16:49.992Z,36.9
2019-01-05T01:17:40.897Z,37.4
2019-01-05T01:18:32.346Z,37.7
2019-01-05T01:19:22.097Z,37.9
2019-01-05T01:20:11.973Z,38.1
2019-01-05T01:21:02.227Z,38.1
2019-01-05T01:21:52.207Z,38.1
2019-01-05T01:22:42.564Z,38.1
2019-01-05T01:23:32.098Z,37.9
2019-01-05T01:24:21.079Z,37.6
2019-01-05T01:25:12.499Z,37.3
2019-01-05T01:26:01.386Z,37.1
2019-01-05T01:26:51.993Z,36.8
2019-01-05T01:27:42.636Z,37.1
2019-01-05T01:28:31.434Z,37.6
2019-01-05T01:29:22.244Z,37.8
2019-01-05T01:30:13.743Z,38.1
2019-01-05T01:31:03.108Z,38.1
2019-01-05T01:31:53.233Z,38.2
2019-01-05T01:32:42.811Z,38.2
2019-01-05T01:33:33.023Z,38.1
2019-01-05T01:34:23.101Z,38.1
2019-01-05T01:35:12.955Z,37.8
2019-01-05T01:36:03.177Z,37.5
2019-01-05T01:36:52.920Z,37.2
2019-01-05T01:37:42.990Z,36.9
2019-01-05T01:38:33.078Z,36.8
2019-01-05T01:39:22.825Z,37.4
2019-01-05T01:40:13.468Z,37.8
2019-01-05T01:41:03.758Z,38.1
2019-01-05T01:41:53.860Z,38.2
2019-01-05T01:42:43.115Z,38.3
2019-01-05T01:43:33.941Z,38.3
2019-01-05T01:44:23.267Z,38.3
2019-01-05T01:45:12.430Z,38.1
2019-01-05T01:46:03.912Z,38
2019-01-05T01:46:53.332Z,37.7
2019-01-05T01:47:42.907Z,37.4
2019-01-05T01:48:34.529Z,37.2
2019-01-05T01:49:24.345Z,37.3
2019-01-05T01:50:14.920Z,37.8
2019-01-05T01:51:04.040Z,38
2019-01-05T01:51:53.712Z,38.2
2019-01-05T01:52:44.885Z,38.3
2019-01-05T01:53:35.434Z,38.4
2019-01-05T01:54:24.960Z,38.4
2019-01-05T01:55:14.242Z,38.4
2019-01-05T01:56:04.204Z,38.3
2019-01-05T01:56:54.022Z,38.1
2019-01-05T01:57:43.862Z,38
2019-01-05T01:58:35.015Z,37.7
2019-01-05T01:59:25.032Z,37.4
2019-01-05T02:00:14.799Z,37.1
2019-01-05T02:01:05.217Z,37.3
2019-01-05T02:01:54.112Z,37.8
2019-01-05T02:02:44.959Z,38.1
2019-01-05T02:03:35.346Z,38.3
2019-01-05T02:04:24.250Z,38.4
2019-01-05T02:05:15.161Z,38.4
2019-01-05T02:06:05.459Z,38.4
2019-01-05T02:06:55.855Z,38.3
2019-01-05T02:07:45.338Z,38.2
2019-01-05T02:08:36.259Z,38.1
2019-01-05T02:09:25.746Z,38
2019-01-05T02:10:15.551Z,37.7
2019-01-05T02:11:06.124Z,37.4
2019-01-05T02:11:56.146Z,37.3
2019-01-05T02:12:45.643Z,37.8
2019-01-05T02:13:36.631Z,37.9
2019-01-05T02:14:24.710Z,38.2
2019-01-05T02:15:16.138Z,38.3
2019-01-05T02:16:06.181Z,38.3
2019-01-05T02:16:56.236Z,38.3
2019-01-05T02:17:46.268Z,38.3
2019-01-05T02:18:37.893Z,38.2
2019-01-05T02:19:25.291Z,38
2019-01-05T02:20:16.228Z,37.8
2019-01-05T02:21:05.456Z,37.4
2019-01-05T02:21:56.243Z,37.3
2019-01-05T02:22:46.595Z,37.6
2019-01-05T02:23:36.417Z,37.9
2019-01-05T02:24:27.006Z,38.2
2019-01-05T02:25:16.247Z,38.3
2019-01-05T02:26:06.307Z,38.4
2019-01-05T02:26:56.724Z,38.4
2019-01-05T02:27:47.270Z,38.4
2019-01-05T02:28:36.230Z,38.3
2019-01-05T02:29:26.514Z,38.2
2019-01-05T02:30:17.046Z,37.9
2019-01-05T02:31:06.854Z,37.6
2019-01-05T02:31:56.640Z,37.4
2019-01-05T02:32:47.092Z,37.5
2019-01-05T02:33:37.659Z,37.9
2019-01-05T02:34:27.752Z,38.1
2019-01-05T02:35:17.610Z,38.3
2019-01-05T02:36:06.844Z,38.4
2019-01-05T02:36:56.602Z,38.4
2019-01-05T02:37:47.527Z,38.4
2019-01-05T02:38:36.439Z,38.4
2019-01-05T02:39:27.979Z,38.3
2019-01-05T02:40:17.346Z,38.1
2019-01-05T02:41:07.739Z,37.8
2019-01-05T02:41:58.098Z,37.6
2019-01-05T02:42:48.870Z,37.3
2019-01-05T02:43:37.847Z,37.2
2019-01-05T02:44:27.032Z,37.7
2019-01-05T02:45:18.534Z,38
2019-01-05T02:46:07.792Z,38.3
2019-01-05T02:46:58.269Z,38.4
2019-01-05T02:47:47.914Z,38.4
2019-01-05T02:48:37.591Z,38.5
2019-01-05T02:49:29.103Z,38.4
2019-01-05T02:50:18.031Z,38.3
2019-01-05T02:51:07.724Z,38.2
2019-01-05T02:51:59.775Z,37.9
2019-01-05T02:52:49.023Z,37.7
2019-01-05T02:53:39.051Z,37.4
2019-01-05T02:54:28.258Z,37.6
2019-01-05T02:55:18.280Z,37.9
2019-01-05T02:56:08.323Z,38.2
2019-01-05T02:56:58.691Z,38.4
2019-01-05T02:57:49.702Z,38.5
2019-01-05T02:58:38.806Z,38.6
2019-01-05T02:59:28.810Z,38.6
2019-01-05T03:00:18.928Z,38.5
2019-01-05T03:01:09.580Z,38.4
2019-01-05T03:01:58.180Z,38.3
2019-01-05T03:02:49.154Z,38.1
2019-01-05T03:03:39.531Z,37.8
2019-01-05T03:04:29.201Z,37.6
2019-01-05T03:05:19.022Z,37.5
2019-01-05T03:06:09.558Z,37.9
2019-01-05T03:06:58.578Z,38.2
2019-01-05T03:07:50.130Z,38.4
2019-01-05T03:08:39.788Z,38.5
2019-01-05T03:09:30.150Z,38.6
2019-01-05T03:10:19.349Z,38.5
2019-01-05T03:11:07.978Z,38.5
2019-01-05T03:12:00.009Z,38.4
2019-01-05T03:12:50.615Z,38.3
2019-01-05T03:13:39.596Z,38.1
2019-01-05T03:14:30.803Z,37.9
2019-01-05T03:15:20.505Z,37.6
2019-01-05T03:16:10.002Z,37.8
2019-01-05T03:16:58.999Z,38.1
2019-01-05T03:17:50.730Z,38.3
2019-01-05T03:18:41.084Z,38.4
2019-01-05T03:19:30.322Z,38.5
2019-01-05T03:20:20.335Z,38.6
2019-01-05T03:21:10.945Z,38.6
2019-01-05T03:22:00.673Z,38.5
2019-01-05T03:22:50.729Z,38.4
2019-01-05T03:23:41.178Z,38.3
2019-01-05T03:24:29.736Z,38.3
2019-01-05T03:25:20.124Z,38.1
2019-01-05T03:26:10.138Z,37.8
2019-01-05T03:27:00.749Z,37.6
2019-01-05T03:27:50.858Z,37.9
2019-01-05T03:28:41.126Z,38.3
2019-01-05T03:29:30.376Z,38.4
2019-01-05T03:30:21.687Z,38.6
2019-01-05T03:31:12.443Z,38.6
2019-01-05T03:32:00.747Z,38.6
2019-01-05T03:32:51.762Z,38.6
2019-01-05T03:33:41.281Z,38.4
2019-01-05T03:34:31.526Z,38.4
2019-01-05T03:35:21.326Z,38.2
2019-01-05T03:36:11.357Z,37.9
2019-01-05T03:37:01.198Z,37.6
2019-01-05T03:37:51.776Z,37.6
2019-01-05T03:38:41.293Z,38.1
2019-01-05T03:39:30.574Z,38.3
2019-01-05T03:40:22.994Z,38.5
2019-01-05T03:41:11.490Z,38.7
2019-01-05T03:42:02.056Z,38.8
2019-01-05T03:42:52.446Z,38.8
2019-01-05T03:43:41.893Z,38.8
2019-01-05T03:44:32.214Z,38.8
2019-01-05T03:45:22.003Z,38.7
2019-01-05T03:46:11.588Z,38.6
2019-01-05T03:47:02.140Z,38.5
2019-01-05T03:47:51.290Z,38.4
2019-01-05T03:48:43.072Z,38.4
2019-01-05T03:49:32.025Z,38.3
2019-01-05T03:50:23.170Z,38.3
2019-01-05T03:51:13.156Z,38.3
2019-01-05T03:52:01.345Z,38.3
2019-01-05T03:52:52.208Z,38.3
2019-01-05T03:53:41.994Z,38.3
2019-01-05T03:54:32.857Z,38.3
2019-01-05T03:55:23.520Z,38.3
2019-01-05T03:56:12.415Z,38.2
2019-01-05T03:57:02.757Z,38.2
2019-01-05T03:57:53.152Z,38.2
2019-01-05T03:58:42.305Z,38.2
2019-01-05T03:59:33.462Z,38.2
2019-01-05T04:00:22.787Z,38.3
2019-01-05T04:01:13.602Z,38.3
2019-01-05T04:02:03.369Z,38.3
2019-01-05T04:02:53.249Z,38.3
2019-01-05T04:03:43.722Z,38.4
2019-01-05T04:04:34.384Z,38.4
2019-01-05T04:05:23.104Z,38.4
2019-01-05T04:06:12.829Z,38.4
2019-01-05T04:07:03.466Z,38.5
2019-01-05T04:07:53.291Z,38.4
2019-01-05T04:08:43.594Z,38.5
2019-01-05T04:09:33.716Z,38.5
2019-01-05T04:10:23.403Z,38.6
2019-01-05T04:11:12.869Z,38.6
2019-01-05T04:12:04.616Z,38.6
2019-01-05T04:12:53.299Z,38.6
2019-01-05T04:13:44.424Z,38.6
2019-01-05T04:14:33.415Z,38.6
2019-01-05T04:15:24.819Z,38.6
2019-01-05T04:16:14.326Z,38.6
2019-01-05T04:17:04.201Z,38.5
2019-01-05T04:17:54.781Z,38.5
2019-01-05T04:18:43.962Z,38.5
2019-01-05T04:19:35.138Z,38.4
2019-01-05T04:20:22.948Z,38.4
2019-01-05T04:21:13.857Z,38.4
2019-01-05T04:22:04.526Z,38.4
2019-01-05T04:22:55.023Z,38.4
2019-01-05T04:23:44.291Z,38.4
2019-01-05T04:25:25.979Z,38.4
2019-01-05T04:26:14.203Z,38.4
2019-01-05T04:27:05.370Z,38.5
2019-01-05T04:27:55.128Z,38.5
2019-01-05T04:28:44.650Z,38.6
2019-01-05T04:29:35.278Z,38.6
2019-01-05T04:30:26.919Z,38.6
2019-01-05T04:31:15.653Z,38.6
2019-01-05T04:32:03.513Z,38.6
2019-01-05T04:32:55.488Z,38.6
2019-01-05T04:33:44.695Z,38.6
2019-01-05T04:34:35.383Z,38.6
2019-01-05T04:35:25.087Z,38.6
2019-01-05T04:36:15.218Z,38.6
2019-01-05T04:37:05.498Z,38.6
2019-01-05T04:37:55.642Z,38.7
2019-01-05T04:38:45.575Z,38.6
2019-01-05T04:39:35.940Z,38.7
2019-01-05T04:40:26.452Z,38.7
2019-01-05T04:41:15.901Z,38.6
2019-01-05T04:42:06.719Z,38.6
2019-01-05T04:42:54.774Z,38.6
2019-01-05T04:43:46.266Z,38.6
2019-01-05T04:44:35.804Z,38.6
2019-01-05T04:45:27.372Z,38.5
2019-01-05T05:02:47.484Z,38.7
2019-01-05T05:03:35.590Z,38.6
2019-01-05T05:04:25.641Z,38.6
2019-01-05T05:05:16.234Z,38.6
2019-01-05T05:06:05.941Z,38.6
2019-01-05T05:06:55.811Z,38.6
2019-01-05T05:07:47.104Z,38.6
2019-01-05T05:08:36.470Z,38.6
2019-01-05T05:09:24.576Z,38.5
2019-01-05T05:10:16.605Z,38.5
2019-01-05T05:11:05.412Z,38.3
2019-01-05T05:11:55.582Z,38.1
2019-01-05T05:12:47.115Z,37.8
2019-01-05T05:13:35.880Z,37.5
2019-01-05T05:14:25.801Z,37.8
2019-01-05T05:15:16.370Z,38.1
2019-01-05T05:16:07.000Z,38.3
2019-01-05T05:16:56.263Z,38.3
2019-01-05T05:17:47.293Z,38.1
2019-01-05T05:18:37.415Z,37.8
2019-01-05T05:19:26.032Z,37.6
2019-01-05T05:20:17.816Z,37.3
2019-01-05T05:21:05.917Z,36.9
2019-01-05T05:21:56.358Z,36.4
2019-01-05T05:22:46.697Z,36
2019-01-05T05:23:36.994Z,35.5
2019-01-05T05:24:27.007Z,35.1
2019-01-05T05:25:17.827Z,34.5
2019-01-05T05:26:06.567Z,34.1
2019-01-05T05:26:56.335Z,33.6
2019-01-05T05:27:47.045Z,33.3
2019-01-05T05:28:38.161Z,32.9
2019-01-05T05:29:26.689Z,32.6
2019-01-05T05:30:17.694Z,32.3
2019-01-05T05:31:07.509Z,32.1
2019-01-05T05:31:57.991Z,31.8
2019-01-05T05:32:47.656Z,31.6
2019-01-05T05:33:37.539Z,31.4
2019-01-05T05:34:28.176Z,31.3
2019-01-05T05:35:17.915Z,31.1
2019-01-05T05:36:07.431Z,30.9
2019-01-05T05:36:57.526Z,30.8
2019-01-05T05:37:48.104Z,30.7
2019-01-05T05:38:37.891Z,30.5
2019-01-05T05:39:27.948Z,30.4
2019-01-05T05:40:17.808Z,30.3
2019-01-05T05:41:07.529Z,30.2
2019-01-05T05:41:58.036Z,30.1
2019-01-05T05:42:47.848Z,30
2019-01-05T05:43:39.566Z,29.9
2019-01-05T05:44:29.187Z,29.8
2019-01-05T05:45:18.699Z,29.8
2019-01-05T05:46:08.668Z,29.7
2019-01-05T05:46:58.015Z,29.6
2019-01-05T05:47:48.771Z,29.6
2019-01-05T05:48:38.303Z,29.4
2019-01-05T05:49:29.515Z,29.4
2019-01-05T05:50:18.130Z,29.3
2019-01-05T05:51:08.755Z,29.3
2019-01-05T05:51:59.456Z,29.2
2019-01-05T05:52:49.777Z,29.1
2019-01-05T05:53:39.203Z,29.1
2019-01-05T05:54:27.680Z,29
2019-01-05T05:55:19.070Z,29
2019-01-05T05:56:08.530Z,28.9
2019-01-05T05:56:59.900Z,28.8
2019-01-05T05:57:48.668Z,28.8
2019-01-05T05:58:39.318Z,28.7
2019-01-05T05:59:29.392Z,28.7
2019-01-05T06:00:19.088Z,28.6
2019-01-05T06:01:09.975Z,28.6
2019-01-05T06:01:58.739Z,28.6
2019-01-05T06:02:49.222Z,28.5
2019-01-05T06:03:40.418Z,28.4
2019-01-05T06:04:30.502Z,28.4
2019-01-05T06:05:19.420Z,28.4
2019-01-05T06:06:10.309Z,28.3
2019-01-05T06:06:58.974Z,28.3
2019-01-05T06:07:49.278Z,28.3
2019-01-05T06:08:40.152Z,28.3
2019-01-05T06:09:30.331Z,28.2
2019-01-05T06:10:20.619Z,28.1
2019-01-05T06:11:10.707Z,28.1
2019-01-05T06:12:00.456Z,28.1
2019-01-05T06:12:50.166Z,28
2019-01-05T06:13:40.279Z,28
2019-01-05T06:14:31.401Z,27.9
2019-01-05T06:15:21.254Z,27.9
2019-01-05T06:16:10.129Z,27.9
2019-01-05T06:19:31.489Z,27.8
2019-01-05T06:20:19.884Z,27.8
2019-01-05T06:21:11.036Z,27.7
2019-01-05T06:22:00.295Z,27.7
2019-01-05T06:22:51.106Z,27.6
2019-01-05T06:23:41.425Z,27.6
2019-01-05T06:24:31.317Z,27.6
2019-01-05T06:25:21.929Z,27.6
2019-01-05T06:26:11.677Z,27.5
2019-01-05T06:27:01.132Z,27.4
2019-01-05T06:27:50.711Z,27.4
2019-01-05T06:28:42.314Z,27.4
2019-01-05T06:29:31.084Z,27.4
2019-01-05T06:30:21.358Z,27.4
2019-01-05T06:31:11.712Z,27.3
2019-01-05T06:32:00.356Z,27.3
2019-01-05T06:32:50.732Z,27.3
2019-01-05T06:33:41.691Z,27.2
2019-01-05T06:34:32.316Z,27.2
2019-01-05T06:35:21.574Z,27.2
2019-01-05T06:36:11.575Z,27.2
2019-01-05T06:37:02.146Z,27.1
2019-01-05T06:37:51.328Z,27.1
2019-01-05T06:38:42.518Z,27.1
2019-01-05T06:39:31.491Z,27.1
2019-01-05T06:40:22.621Z,27
2019-01-05T06:41:12.946Z,27
2019-01-05T06:42:01.905Z,26.9
2019-01-05T06:42:52.523Z,26.9
2019-01-05T06:43:42.278Z,26.9
2019-01-05T06:44:33.959Z,26.9
2019-01-05T06:45:23.191Z,26.9
2019-01-05T06:46:12.268Z,26.8
2019-01-05T06:47:02.035Z,26.8
2019-01-05T06:47:52.843Z,26.8
2019-01-05T06:48:43.183Z,26.8
2019-01-05T06:49:33.194Z,26.8
2019-01-05T06:50:22.706Z,26.7
2019-01-05T06:51:13.700Z,26.7
2019-01-05T06:52:03.423Z,26.6
2019-01-05T06:52:51.793Z,26.6
2019-01-05T06:53:43.203Z,26.6
2019-01-05T06:54:33.051Z,26.6
2019-01-05T06:55:24.146Z,26.6
2019-01-05T06:56:13.113Z,26.5
2019-01-05T06:57:03.997Z,26.5
2019-01-05T06:57:53.260Z,26.5
2019-01-05T06:58:43.303Z,26.5
2019-01-05T06:59:32.847Z,26.4
2019-01-05T07:00:23.070Z,26.4
2019-01-05T07:01:12.987Z,26.4
2019-01-05T07:02:02.470Z,26.4
2019-01-05T07:02:53.907Z,26.4
2019-01-05T07:03:43.463Z,26.4
2019-01-05T07:04:33.485Z,26.3
2019-01-05T07:05:23.230Z,26.3
2019-01-05T07:06:12.132Z,26.3
2019-01-05T07:07:03.118Z,26.3
2019-01-05T07:07:53.913Z,26.3
2019-01-05T07:08:43.737Z,26.2
2019-01-05T07:09:34.317Z,26.2
2019-01-05T07:10:24.642Z,26.2
2019-01-05T07:11:15.134Z,26.1
2019-01-05T07:12:04.226Z,26.1
2019-01-05T07:12:54.259Z,26.1
2019-01-05T07:13:44.936Z,26.1
2019-01-05T07:14:35.274Z,26.1
2019-01-05T07:15:24.989Z,26.1
2019-01-05T07:16:14.228Z,26.1
2019-01-05T07:17:05.694Z,26.1
2019-01-05T07:17:54.571Z,26
2019-01-05T07:18:44.659Z,26
2019-01-05T07:19:35.003Z,25.9
2019-01-05T07:20:25.254Z,25.9
2019-01-05T07:21:14.594Z,25.9
2019-01-05T07:22:03.912Z,25.9
2019-01-05T07:22:55.677Z,25.9
2019-01-05T07:23:45.251Z,25.9
2019-01-05T07:24:36.160Z,25.8
2019-01-05T07:25:25.148Z,25.8
2019-01-05T07:26:15.979Z,25.8
2019-01-05T07:27:06.051Z,25.8
2019-01-05T07:27:55.824Z,25.8
2019-01-05T07:28:45.587Z,25.8
2019-01-05T07:29:34.816Z,25.7
2019-01-05T07:30:26.001Z,25.8
2019-01-05T07:31:15.513Z,25.7
2019-01-05T07:32:05.568Z,25.7
2019-01-05T07:32:56.197Z,25.7
2019-01-05T07:33:45.650Z,25.6
2019-01-05T07:34:35.455Z,25.6
2019-01-05T07:35:26.328Z,25.6
2019-01-05T07:36:15.820Z,25.6
2019-01-05T07:37:05.598Z,25.6
2019-01-05T07:37:55.953Z,25.6
2019-01-05T07:38:45.758Z,25.6
2019-01-05T07:39:35.901Z,25.5
2019-01-05T07:40:25.568Z,25.5
2019-01-05T07:41:16.095Z,25.5
2019-01-05T07:42:06.192Z,25.5
2019-01-05T07:42:55.748Z,25.4
2019-01-05T07:43:46.454Z,25.4
2019-01-05T07:44:36.935Z,25.4
2019-01-05T07:45:26.498Z,25.4
2019-01-05T07:46:16.032Z,25.4
2019-01-05T07:47:06.613Z,25.3
2019-01-05T07:47:56.112Z,25.3
2019-01-05T07:48:47.553Z,25.3
2019-01-05T07:49:37.056Z,25.3
2019-01-05T07:50:27.370Z,25.3
2019-01-05T07:51:16.892Z,25.3
2019-01-05T07:52:07.023Z,25.3
2019-01-05T07:52:56.962Z,25.3
2019-01-05T07:53:47.877Z,25.2
2019-01-05T07:54:37.907Z,25.3
2019-01-05T07:55:27.786Z,25.2
2019-01-05T07:56:17.709Z,25.2
2019-01-05T07:57:07.309Z,25.2
2019-01-05T07:57:57.336Z,25.1
2019-01-05T07:58:47.374Z,25.1
2019-01-05T07:59:38.254Z,25.1
2019-01-05T08:00:28.574Z,25.1
2019-01-05T08:01:17.271Z,25.1
2019-01-05T08:02:07.941Z,25.1
2019-01-05T08:02:57.968Z,25.1
2019-01-05T08:03:47.994Z,25
2019-01-05T08:04:37.009Z,25
2019-01-05T08:05:27.913Z,25
2019-01-05T08:06:18.509Z,25
2019-01-05T08:07:08.513Z,24.9
2019-01-05T08:07:58.431Z,24.9
2019-01-05T08:08:47.586Z,24.9
2019-01-05T08:09:38.183Z,24.9
2019-01-05T08:10:28.210Z,24.9
2019-01-05T08:11:17.123Z,24.9
2019-01-05T08:12:08.071Z,24.9
2019-01-05T08:12:59.473Z,24.9
2019-01-05T08:13:48.149Z,24.9
2019-01-05T08:14:37.916Z,24.9
2019-01-05T08:15:29.130Z,24.8
2019-01-05T08:16:19.135Z,24.8
2019-01-05T08:17:08.903Z,24.8
2019-01-05T08:17:58.403Z,24.8
2019-01-05T08:18:49.093Z,24.8
2019-01-05T08:19:38.507Z,24.8
2019-01-05T08:20:28.900Z,24.8
2019-01-05T08:21:18.351Z,24.7
2019-01-05T08:22:09.507Z,24.7
2019-01-05T08:22:59.195Z,24.7
2019-01-05T08:23:49.095Z,24.7
2019-01-05T08:24:39.410Z,24.7
2019-01-05T08:25:28.959Z,24.6
2019-01-05T08:26:18.814Z,24.6
2019-01-05T08:27:09.375Z,24.6
2019-01-05T08:27:59.067Z,24.6
2019-01-05T08:28:50.022Z,24.6
2019-01-05T08:29:39.815Z,24.6
2019-01-05T08:30:29.590Z,24.6
2019-01-05T08:31:19.607Z,24.5
2019-01-05T08:32:10.254Z,24.5
2019-01-05T08:32:58.857Z,24.5
2019-01-05T08:33:50.862Z,24.5
2019-01-05T08:34:38.744Z,24.5
2019-01-05T08:35:30.337Z,24.5
2019-01-05T08:36:19.229Z,24.4
2019-01-05T08:37:08.929Z,24.4
2019-01-05T08:37:59.831Z,24.4
2019-01-05T08:38:49.816Z,24.4
2019-01-05T08:39:40.840Z,24.4
2019-01-05T08:40:30.277Z,24.4
2019-01-05T08:41:19.491Z,24.4
2019-01-05T08:42:11.289Z,24.4
2019-01-05T08:42:59.486Z,24.4
2019-01-05T08:43:49.752Z,24.4
2019-01-05T08:44:39.716Z,24.3
2019-01-05T08:45:30.351Z,24.3
2019-01-05T08:46:20.644Z,24.3
2019-01-05T08:47:10.466Z,24.3
2019-01-05T08:48:00.286Z,24.3
2019-01-05T08:48:50.874Z,24.3
2019-01-05T08:49:40.111Z,24.3
2019-01-05T08:50:30.994Z,24.3
2019-01-05T08:51:21.278Z,24.3
2019-01-05T08:52:10.793Z,24.2
2019-01-05T08:53:00.924Z,24.2
2019-01-05T08:53:51.148Z,24.3
2019-01-05T08:54:40.214Z,24.2
2019-01-05T08:55:29.886Z,24.2
2019-01-05T08:56:21.110Z,24.2
2019-01-05T08:57:10.271Z,24.2
2019-01-05T08:58:00.394Z,24.1
2019-01-05T08:58:51.268Z,24.1
2019-01-05T08:59:42.085Z,24.1
2019-01-05T09:00:32.198Z,24.1
2019-01-05T09:01:20.798Z,24.1
2019-01-05T09:17:12.959Z,23.9
2019-01-05T09:18:02.990Z,23.9
2019-01-05T09:18:52.022Z,23.9
2019-01-05T09:19:42.804Z,23.9
2019-01-05T09:20:33.161Z,23.9
2019-01-05T09:21:22.919Z,23.8
2019-01-05T09:22:13.186Z,23.8
2019-01-05T09:23:03.394Z,23.8
2019-01-05T09:23:53.156Z,23.8
2019-01-05T09:24:42.329Z,23.8
2019-01-05T09:25:33.484Z,23.8
2019-01-05T09:26:23.244Z,23.8
2019-01-05T09:27:13.060Z,23.8
2019-01-05T09:28:03.331Z,27
2019-01-05T09:28:53.481Z,29.7
2019-01-05T09:29:43.776Z,31.6
2019-01-05T09:30:32.166Z,33
2019-01-05T09:31:23.328Z,33.9
2019-01-05T09:32:12.846Z,34.5
2019-01-05T09:33:03.154Z,34.8
2019-01-05T09:33:53.771Z,34.9
2019-01-05T09:34:44.128Z,34.8
2019-01-05T09:35:33.083Z,34.8
2019-01-05T09:36:24.215Z,34.6
2019-01-05T09:37:13.865Z,34.1
2019-01-05T09:38:03.266Z,33.6
2019-01-05T09:38:54.413Z,32.8
2019-01-05T09:39:43.666Z,32
2019-01-05T09:40:33.818Z,31.3
2019-01-05T09:41:24.558Z,32.9
2019-01-05T09:42:14.224Z,34.2
2019-01-05T09:43:03.955Z,35.1
2019-01-05T09:43:54.998Z,35.6
2019-01-05T09:44:43.406Z,35.9
2019-01-05T09:45:34.885Z,36.1
2019-01-05T09:46:23.520Z,36.1
2019-01-05T09:47:14.630Z,36.1
2019-01-05T09:48:05.390Z,35.8
2019-01-05T09:48:54.780Z,35.6
2019-01-05T09:49:45.132Z,35.2
2019-01-05T09:50:33.535Z,34.6
2019-01-05T09:51:24.970Z,33.9
2019-01-05T09:52:15.323Z,33.4
2019-01-05T09:53:04.814Z,34.6
2019-01-05T09:53:55.142Z,35.4
2019-01-05T09:54:44.700Z,35.9
2019-01-05T09:55:34.455Z,36.2
2019-01-05T09:56:22.552Z,36.3
2019-01-05T09:57:14.765Z,36.3
2019-01-05T09:58:05.897Z,36.1
2019-01-05T09:58:54.647Z,35.8
2019-01-05T09:59:45.621Z,35.3
2019-01-05T10:00:35.311Z,35.3
2019-01-05T10:01:25.732Z,35.9
2019-01-05T10:02:15.202Z,36.3
2019-01-05T10:03:03.437Z,36.5
2019-01-05T10:03:55.646Z,36.6
2019-01-05T10:04:44.806Z,36.3
2019-01-05T10:05:36.556Z,36
2019-01-05T10:06:25.559Z,35.5
2019-01-05T10:07:16.629Z,34.9
2019-01-05T10:08:06.447Z,35.7
2019-01-05T10:08:55.659Z,36.3
2019-01-05T10:09:45.464Z,36.6
2019-01-05T10:10:35.484Z,36.7
2019-01-05T10:11:25.862Z,36.8
2019-01-05T10:12:15.859Z,36.6
2019-01-05T10:13:07.103Z,36.3
2019-01-05T10:13:56.541Z,35.9
2019-01-05T10:14:46.596Z,35.6
2019-01-05T10:15:36.704Z,36.3
2019-01-05T10:16:26.736Z,36.7
2019-01-05T10:17:16.246Z,36.9
2019-01-05T10:18:07.985Z,36.9
2019-01-05T10:18:55.501Z,36.9
2019-01-05T10:19:46.903Z,36.6
2019-01-05T10:20:36.163Z,36.3
2019-01-05T10:21:26.533Z,35.8
2019-01-05T10:22:17.150Z,35.6
2019-01-05T10:23:08.005Z,36.3
2019-01-05T10:23:57.783Z,36.7
2019-01-05T10:24:46.495Z,36.9
2019-01-05T10:25:36.490Z,37.1
2019-01-05T10:26:26.903Z,37.1
2019-01-05T10:27:16.355Z,37.1
2019-01-05T10:28:07.010Z,36.9
2019-01-05T10:28:57.052Z,36.6
2019-01-05T10:29:47.613Z,36.2
2019-01-05T10:30:37.415Z,36.4
2019-01-05T10:31:27.715Z,36.9
2019-01-05T10:32:17.470Z,37.1
2019-01-05T10:33:07.392Z,37.3
2019-01-05T10:33:57.925Z,37.3
2019-01-05T10:34:47.675Z,37.2
2019-01-05T10:35:37.757Z,36.9
2019-01-05T10:36:27.482Z,36.6
2019-01-05T10:37:17.295Z,36.2
2019-01-05T10:38:07.902Z,36.4
2019-01-05T10:38:58.192Z,36.9
2019-01-05T10:39:48.282Z,37.2
2019-01-05T10:40:37.507Z,37.4
2019-01-05T10:41:27.894Z,37.4
2019-01-05T10:42:18.032Z,37.4
2019-01-05T10:43:08.069Z,37.4
2019-01-05T10:43:58.623Z,37.1
2019-01-05T10:44:46.984Z,36.8
2019-01-05T10:45:38.686Z,36.4
2019-01-05T10:46:28.197Z,36.2
2019-01-05T10:47:18.499Z,36.8
2019-01-05T10:48:09.447Z,37.1
2019-01-05T10:48:59.204Z,37.3
2019-01-05T10:49:48.174Z,37.4
2019-01-05T10:50:38.247Z,37.4
2019-01-05T10:51:28.263Z,37.3
2019-01-05T10:52:17.507Z,37
2019-01-05T10:53:08.111Z,36.7
2019-01-05T10:53:58.746Z,36.5
2019-01-05T10:54:48.741Z,37
2019-01-05T10:55:39.106Z,37.3
2019-01-05T10:56:27.774Z,37.5
2019-01-05T10:57:19.631Z,37.6
2019-01-05T10:58:08.791Z,37.5
2019-01-05T10:59:00.149Z,37.5
2019-01-05T10:59:49.380Z,37.2
2019-01-05T11:00:39.167Z,36.9
2019-01-05T11:01:29.886Z,36.6
2019-01-05T11:02:19.651Z,37.1
2019-01-05T11:03:09.091Z,37.4
2019-01-05T11:04:01.201Z,37.6
2019-01-05T11:04:49.745Z,37.6
2019-01-05T11:05:39.036Z,37.6
2019-01-05T11:06:29.345Z,37.6
2019-01-05T11:07:19.895Z,37.4
2019-01-05T11:08:09.658Z,37.1
2019-01-05T11:09:00.345Z,36.8
2019-01-05T11:09:48.608Z,37.1
2019-01-05T11:10:40.128Z,37.4
2019-01-05T11:11:29.888Z,37.6
2019-01-05T11:12:20.500Z,37.7
2019-01-05T11:13:08.995Z,37.8
2019-01-05T11:14:00.877Z,37.7
2019-01-05T11:14:51.825Z,37.5
2019-01-05T11:15:40.430Z,37.2
2019-01-05T11:16:30.525Z,36.9
2019-01-05T11:17:20.992Z,36.8
2019-01-05T11:18:11.443Z,37.3
2019-01-05T11:19:02.601Z,37.5
2019-01-05T11:19:51.017Z,37.6
2019-01-05T11:20:44.839Z,37.7
2019-01-05T11:21:31.760Z,37.6
2019-01-05T11:22:21.322Z,37.4
2019-01-05T11:23:11.555Z,37.2
2019-01-05T11:24:01.945Z,36.9
2019-01-05T11:24:50.542Z,37.1
2019-01-05T11:25:41.219Z,37.4
2019-01-05T11:26:31.289Z,37.7
2019-01-05T11:27:21.274Z,37.8
2019-01-05T11:28:11.364Z,37.8
2019-01-05T11:29:01.434Z,37.8
2019-01-05T11:29:51.204Z,37.6
2019-01-05T11:30:40.684Z,37.3
2019-01-05T11:31:32.297Z,37.1
2019-01-05T11:32:23.119Z,37.1
2019-01-05T11:33:12.054Z,37.4
2019-01-05T11:34:02.653Z,37.8
2019-01-05T11:34:52.349Z,37.9
2019-01-05T11:35:41.869Z,37.9
2019-01-05T11:36:32.229Z,37.9
2019-01-05T11:37:21.434Z,37.9
2019-01-05T11:38:12.346Z,37.8
2019-01-05T11:39:03.543Z,37.5
2019-01-05T11:39:51.898Z,37.2
2019-01-05T11:40:41.413Z,37.1
2019-01-05T11:41:32.836Z,37.4
2019-01-05T11:42:22.783Z,37.8
2019-01-05T11:43:12.744Z,37.9
2019-01-05T11:44:02.784Z,38.1
2019-01-05T11:44:52.514Z,38.1
2019-01-05T11:45:42.443Z,38.1
2019-01-05T11:46:33.291Z,38
2019-01-05T11:47:22.955Z,37.9
2019-01-05T11:48:13.268Z,37.6
2019-01-05T11:49:02.826Z,37.3
2019-01-05T11:49:53.968Z,37
2019-01-05T11:50:42.872Z,37.2
2019-01-05T11:51:32.739Z,37.6
2019-01-05T11:52:23.048Z,37.8
2019-01-05T11:53:13.339Z,38
2019-01-05T11:54:03.503Z,38.1
2019-01-05T11:54:52.645Z,38.1
2019-01-05T11:55:43.558Z,38.1
2019-01-05T11:56:33.587Z,38.1
2019-01-05T11:57:23.727Z,37.8
2019-01-05T11:58:13.737Z,37.5
2019-01-05T11:59:03.508Z,37.3
2019-01-05T11:59:54.724Z,37.1